sensor_id;sensor_type;location;lat;lon;timestamp;temperature;humidity
46029;DHT22;31763;48.180;7.904;2024-02-21T00:00:46;5.80;99.90
46029;DHT22;31763;48.180;7.904;2024-02-21T00:03:13;5.80;99.90
46029;DHT22;31763;48.180;7.904;2024-02-21T00:05:40;5.80;99.90
46029;DHT22;31763;48.180;7.904;2024-02-21T00:08:07;5.80;99.90
46029;DHT22;31763;48.180;7.904;2024-02-21T00:10:34;5.80;99.90
46029;DHT22;31763;48.180;7.904;2024-02-21T00:13:01;5.70;99.90
46029;DHT22;31763;48.180;7.904;2024-02-21T00:15:28;5.80;99.90
46029;DHT22;31763;48.180;7.904;2024-02-21T00:17:55;5.80;99.90
46029;DHT22;31763;48.180;7.904;2024-02-21T00:20:22;5.90;99.90
46029;DHT22;31763;48.180;7.904;2024-02-21T00:22:49;5.90;99.90
46029;DHT22;31763;48.180;7.904;2024-02-21T00:25:16;5.80;99.90
46029;DHT22;31763;48.180;7.904;2024-02-21T00:27:43;5.90;99.90
46029;DHT22;31763;48.180;7.904;2024-02-21T00:30:10;6.00;99.90
46029;DHT22;31763;48.180;7.904;2024-02-21T00:32:38;5.90;99.90
46029;DHT22;31763;48.180;7.904;2024-02-21T00:35:05;5.80;99.90
46029;DHT22;31763;48.180;7.904;2024-02-21T00:37:32;5.80;99.90
46029;DHT22;31763;48.180;7.904;2024-02-21T00:39:59;5.70;99.90
46029;DHT22;31763;48.180;7.904;2024-02-21T00:42:25;5.70;99.90
46029;DHT22;31763;48.180;7.904;2024-02-21T00:44:52;5.80;99.90
46029;DHT22;31763;48.180;7.904;2024-02-21T00:47:19;5.80;99.90
46029;DHT22;31763;48.180;7.904;2024-02-21T00:49:46;5.90;99.90
46029;DHT22;31763;48.180;7.904;2024-02-21T00:52:13;5.90;99.90
46029;DHT22;31763;48.180;7.904;2024-02-21T00:54:40;5.90;99.90
46029;DHT22;31763;48.180;7.904;2024-02-21T00:57:19;5.90;99.90
46029;DHT22;31763;48.180;7.904;2024-02-21T00:59:46;5.90;99.90
46029;DHT22;31763;48.180;7.904;2024-02-21T01:02:12;6.00;99.90
46029;DHT22;31763;48.180;7.904;2024-02-21T01:04:39;6.00;99.90
46029;DHT22;31763;48.180;7.904;2024-02-21T01:07:06;6.20;99.90
46029;DHT22;31763;48.180;7.904;2024-02-21T01:09:33;6.20;99.90
46029;DHT22;31763;48.180;7.904;2024-02-21T01:12:00;6.10;99.90
46029;DHT22;31763;48.180;7.904;2024-02-21T01:14:27;6.10;99.90
46029;DHT22;31763;48.180;7.904;2024-02-21T01:16:54;6.10;99.90
46029;DHT22;31763;48.180;7.904;2024-02-21T01:19:21;6.20;99.90
46029;DHT22;31763;48.180;7.904;2024-02-21T01:21:48;6.10;99.90
46029;DHT22;31763;48.180;7.904;2024-02-21T01:24:15;6.10;99.90
46029;DHT22;31763;48.180;7.904;2024-02-21T01:26:42;6.20;99.90
46029;DHT22;31763;48.180;7.904;2024-02-21T01:29:09;6.20;99.90
46029;DHT22;31763;48.180;7.904;2024-02-21T01:31:36;6.10;99.90
46029;DHT22;31763;48.180;7.904;2024-02-21T01:34:03;6.10;99.90
46029;DHT22;31763;48.180;7.904;2024-02-21T01:36:30;6.10;99.90
46029;DHT22;31763;48.180;7.904;2024-02-21T01:38:56;6.10;99.90
46029;DHT22;31763;48.180;7.904;2024-02-21T01:41:23;6.10;99.90
46029;DHT22;31763;48.180;7.904;2024-02-21T01:43:51;6.10;99.90
46029;DHT22;31763;48.180;7.904;2024-02-21T01:46:18;6.10;99.90
46029;DHT22;31763;48.180;7.904;2024-02-21T01:48:45;6.10;99.90
46029;DHT22;31763;48.180;7.904;2024-02-21T01:51:13;6.20;99.90
46029;DHT22;31763;48.180;7.904;2024-02-21T01:53:43;6.20;99.90
46029;DHT22;31763;48.180;7.904;2024-02-21T01:56:12;6.10;99.90
46029;DHT22;31763;48.180;7.904;2024-02-21T01:58:42;6.10;99.90
46029;DHT22;31763;48.180;7.904;2024-02-21T02:01:10;6.20;99.90
46029;DHT22;31763;48.180;7.904;2024-02-21T02:03:37;6.20;99.90
46029;DHT22;31763;48.180;7.904;2024-02-21T02:06:07;6.10;99.90
46029;DHT22;31763;48.180;7.904;2024-02-21T02:08:34;6.10;99.90
46029;DHT22;31763;48.180;7.904;2024-02-21T02:11:01;6.10;99.90
46029;DHT22;31763;48.180;7.904;2024-02-21T02:13:28;6.10;99.90
46029;DHT22;31763;48.180;7.904;2024-02-21T02:15:55;6.20;99.90
46029;DHT22;31763;48.180;7.904;2024-02-21T02:18:22;6.20;99.90
46029;DHT22;31763;48.180;7.904;2024-02-21T02:20:49;6.20;99.90
46029;DHT22;31763;48.180;7.904;2024-02-21T02:23:38;6.10;99.90
46029;DHT22;31763;48.180;7.904;2024-02-21T02:26:04;6.10;99.90
46029;DHT22;31763;48.180;7.904;2024-02-21T02:28:33;6.20;99.90
46029;DHT22;31763;48.180;7.904;2024-02-21T02:31:00;6.20;99.90
46029;DHT22;31763;48.180;7.904;2024-02-21T02:33:27;6.20;99.90
46029;DHT22;31763;48.180;7.904;2024-02-21T02:35:54;6.30;99.90
46029;DHT22;31763;48.180;7.904;2024-02-21T02:38:21;6.20;99.90
46029;DHT22;31763;48.180;7.904;2024-02-21T02:40:48;6.30;99.90
46029;DHT22;31763;48.180;7.904;2024-02-21T02:43:15;6.20;99.90
46029;DHT22;31763;48.180;7.904;2024-02-21T02:45:42;6.30;99.90
46029;DHT22;31763;48.180;7.904;2024-02-21T02:48:09;6.30;99.90
46029;DHT22;31763;48.180;7.904;2024-02-21T02:50:36;6.30;99.90
46029;DHT22;31763;48.180;7.904;2024-02-21T02:53:03;6.30;99.90
46029;DHT22;31763;48.180;7.904;2024-02-21T02:55:30;6.30;99.90
46029;DHT22;31763;48.180;7.904;2024-02-21T02:57:57;6.30;99.90
46029;DHT22;31763;48.180;7.904;2024-02-21T03:00:24;6.30;99.90
46029;DHT22;31763;48.180;7.904;2024-02-21T03:02:51;6.30;99.90
46029;DHT22;31763;48.180;7.904;2024-02-21T03:05:19;6.30;99.90
46029;DHT22;31763;48.180;7.904;2024-02-21T03:07:48;6.30;99.90
46029;DHT22;31763;48.180;7.904;2024-02-21T03:10:16;6.20;99.90
46029;DHT22;31763;48.180;7.904;2024-02-21T03:12:44;6.20;99.90
46029;DHT22;31763;48.180;7.904;2024-02-21T03:15:11;6.20;99.90
46029;DHT22;31763;48.180;7.904;2024-02-21T03:17:38;6.20;99.90
46029;DHT22;31763;48.180;7.904;2024-02-21T03:20:06;6.30;99.90
46029;DHT22;31763;48.180;7.904;2024-02-21T03:22:37;6.30;99.90
46029;DHT22;31763;48.180;7.904;2024-02-21T03:25:05;6.20;99.90
46029;DHT22;31763;48.180;7.904;2024-02-21T03:27:33;6.20;99.90
46029;DHT22;31763;48.180;7.904;2024-02-21T03:30:00;6.30;99.90
46029;DHT22;31763;48.180;7.904;2024-02-21T03:32:27;6.20;99.90
46029;DHT22;31763;48.180;7.904;2024-02-21T03:34:55;6.30;99.90
46029;DHT22;31763;48.180;7.904;2024-02-21T03:37:22;6.20;99.90
46029;DHT22;31763;48.180;7.904;2024-02-21T03:39:49;6.20;99.90
46029;DHT22;31763;48.180;7.904;2024-02-21T03:42:15;6.20;99.90
46029;DHT22;31763;48.180;7.904;2024-02-21T03:44:42;6.10;99.90
46029;DHT22;31763;48.180;7.904;2024-02-21T03:47:09;6.20;99.90
46029;DHT22;31763;48.180;7.904;2024-02-21T03:49:38;6.10;99.90
46029;DHT22;31763;48.180;7.904;2024-02-21T03:52:05;6.20;99.90
46029;DHT22;31763;48.180;7.904;2024-02-21T03:54:33;6.20;99.90
46029;DHT22;31763;48.180;7.904;2024-02-21T03:56:59;6.10;99.90
46029;DHT22;31763;48.180;7.904;2024-02-21T03:59:26;6.10;99.90
46029;DHT22;31763;48.180;7.904;2024-02-21T04:01:53;6.10;99.90
46029;DHT22;31763;48.180;7.904;2024-02-21T04:04:20;6.00;99.90
46029;DHT22;31763;48.180;7.904;2024-02-21T04:06:51;6.00;99.90
46029;DHT22;31763;48.180;7.904;2024-02-21T04:09:18;6.00;99.90
46029;DHT22;31763;48.180;7.904;2024-02-21T04:11:45;6.00;99.90
46029;DHT22;31763;48.180;7.904;2024-02-21T04:14:12;5.90;99.90
46029;DHT22;31763;48.180;7.904;2024-02-21T04:16:39;5.90;99.90
46029;DHT22;31763;48.180;7.904;2024-02-21T04:19:06;5.90;99.90
46029;DHT22;31763;48.180;7.904;2024-02-21T04:21:34;5.90;99.90
46029;DHT22;31763;48.180;7.904;2024-02-21T04:24:02;5.90;99.90
46029;DHT22;31763;48.180;7.904;2024-02-21T04:26:32;6.00;99.90
46029;DHT22;31763;48.180;7.904;2024-02-21T04:29:00;5.90;99.90
46029;DHT22;31763;48.180;7.904;2024-02-21T04:31:27;5.90;99.90
46029;DHT22;31763;48.180;7.904;2024-02-21T04:33:54;5.80;99.90
46029;DHT22;31763;48.180;7.904;2024-02-21T04:36:20;5.80;99.90
46029;DHT22;31763;48.180;7.904;2024-02-21T04:38:47;5.80;99.90
46029;DHT22;31763;48.180;7.904;2024-02-21T04:41:15;5.70;99.90
46029;DHT22;31763;48.180;7.904;2024-02-21T04:43:42;5.70;99.90
46029;DHT22;31763;48.180;7.904;2024-02-21T04:46:09;5.70;99.90
46029;DHT22;31763;48.180;7.904;2024-02-21T04:48:36;5.50;99.90
46029;DHT22;31763;48.180;7.904;2024-02-21T04:51:03;5.50;99.90
46029;DHT22;31763;48.180;7.904;2024-02-21T04:53:30;5.60;99.90
46029;DHT22;31763;48.180;7.904;2024-02-21T04:55:57;6.00;99.90
46029;DHT22;31763;48.180;7.904;2024-02-21T04:58:24;5.90;99.90
46029;DHT22;31763;48.180;7.904;2024-02-21T05:00:52;5.80;99.90
46029;DHT22;31763;48.180;7.904;2024-02-21T05:03:21;5.80;99.90
46029;DHT22;31763;48.180;7.904;2024-02-21T05:06:00;5.80;99.90
46029;DHT22;31763;48.180;7.904;2024-02-21T05:08:27;5.80;99.90
46029;DHT22;31763;48.180;7.904;2024-02-21T05:10:54;5.70;99.90
46029;DHT22;31763;48.180;7.904;2024-02-21T05:13:21;5.80;99.90
46029;DHT22;31763;48.180;7.904;2024-02-21T05:15:48;5.70;99.90
46029;DHT22;31763;48.180;7.904;2024-02-21T05:18:15;5.20;99.90
46029;DHT22;31763;48.180;7.904;2024-02-21T05:20:42;5.30;99.90
46029;DHT22;31763;48.180;7.904;2024-02-21T05:23:10;5.40;99.90
46029;DHT22;31763;48.180;7.904;2024-02-21T05:25:37;5.40;99.90
46029;DHT22;31763;48.180;7.904;2024-02-21T05:28:04;5.50;99.90
46029;DHT22;31763;48.180;7.904;2024-02-21T05:30:33;5.50;99.90
46029;DHT22;31763;48.180;7.904;2024-02-21T05:33:06;5.50;99.90
46029;DHT22;31763;48.180;7.904;2024-02-21T05:35:34;5.50;99.90
46029;DHT22;31763;48.180;7.904;2024-02-21T05:38:01;5.60;99.90
46029;DHT22;31763;48.180;7.904;2024-02-21T05:40:33;5.70;99.90
46029;DHT22;31763;48.180;7.904;2024-02-21T05:43:00;5.70;99.90
46029;DHT22;31763;48.180;7.904;2024-02-21T05:45:27;5.80;99.90
46029;DHT22;31763;48.180;7.904;2024-02-21T05:47:53;5.60;99.90
46029;DHT22;31763;48.180;7.904;2024-02-21T05:50:20;5.60;99.90
46029;DHT22;31763;48.180;7.904;2024-02-21T05:52:54;5.60;99.90
46029;DHT22;31763;48.180;7.904;2024-02-21T05:55:22;5.60;99.90
46029;DHT22;31763;48.180;7.904;2024-02-21T05:57:49;5.70;99.90
46029;DHT22;31763;48.180;7.904;2024-02-21T06:00:16;5.40;99.90
46029;DHT22;31763;48.180;7.904;2024-02-21T06:02:43;5.50;99.90
46029;DHT22;31763;48.180;7.904;2024-02-21T06:05:10;5.50;99.90
46029;DHT22;31763;48.180;7.904;2024-02-21T06:07:38;5.60;99.90
46029;DHT22;31763;48.180;7.904;2024-02-21T06:10:07;5.60;99.90
46029;DHT22;31763;48.180;7.904;2024-02-21T06:12:34;5.50;99.90
46029;DHT22;31763;48.180;7.904;2024-02-21T06:15:00;5.50;99.90
46029;DHT22;31763;48.180;7.904;2024-02-21T06:17:27;5.50;99.90
46029;DHT22;31763;48.180;7.904;2024-02-21T06:19:54;5.40;99.90
46029;DHT22;31763;48.180;7.904;2024-02-21T06:22:21;5.40;99.90
46029;DHT22;31763;48.180;7.904;2024-02-21T06:24:48;5.30;99.90
46029;DHT22;31763;48.180;7.904;2024-02-21T06:27:15;5.40;99.90
46029;DHT22;31763;48.180;7.904;2024-02-21T06:29:43;5.40;99.90
46029;DHT22;31763;48.180;7.904;2024-02-21T06:32:10;5.40;99.90
46029;DHT22;31763;48.180;7.904;2024-02-21T06:34:36;5.50;99.90
46029;DHT22;31763;48.180;7.904;2024-02-21T06:37:04;5.40;99.90
46029;DHT22;31763;48.180;7.904;2024-02-21T06:39:30;5.40;99.90
46029;DHT22;31763;48.180;7.904;2024-02-21T06:41:57;5.40;99.90
46029;DHT22;31763;48.180;7.904;2024-02-21T06:44:29;5.40;99.90
46029;DHT22;31763;48.180;7.904;2024-02-21T06:46:56;5.50;99.90
46029;DHT22;31763;48.180;7.904;2024-02-21T06:49:23;5.40;99.90
46029;DHT22;31763;48.180;7.904;2024-02-21T06:51:50;5.40;99.90
46029;DHT22;31763;48.180;7.904;2024-02-21T06:54:17;5.40;99.90
46029;DHT22;31763;48.180;7.904;2024-02-21T06:56:44;5.50;99.90
46029;DHT22;31763;48.180;7.904;2024-02-21T06:59:11;5.60;99.90
46029;DHT22;31763;48.180;7.904;2024-02-21T07:01:49;5.60;99.90
46029;DHT22;31763;48.180;7.904;2024-02-21T07:04:16;5.70;99.90
46029;DHT22;31763;48.180;7.904;2024-02-21T07:06:43;5.70;99.90
46029;DHT22;31763;48.180;7.904;2024-02-21T07:09:10;5.70;99.90
46029;DHT22;31763;48.180;7.904;2024-02-21T07:11:37;5.80;99.90
46029;DHT22;31763;48.180;7.904;2024-02-21T07:14:04;5.80;99.90
46029;DHT22;31763;48.180;7.904;2024-02-21T07:16:31;5.80;99.90
46029;DHT22;31763;48.180;7.904;2024-02-21T07:19:00;6.00;99.90
46029;DHT22;31763;48.180;7.904;2024-02-21T07:21:27;5.90;99.90
46029;DHT22;31763;48.180;7.904;2024-02-21T07:23:53;6.00;99.90
46029;DHT22;31763;48.180;7.904;2024-02-21T07:26:20;5.90;99.90
46029;DHT22;31763;48.180;7.904;2024-02-21T07:28:48;5.70;99.90
46029;DHT22;31763;48.180;7.904;2024-02-21T07:31:15;5.50;99.90
46029;DHT22;31763;48.180;7.904;2024-02-21T07:33:42;5.40;99.90
46029;DHT22;31763;48.180;7.904;2024-02-21T07:36:11;5.40;99.90
46029;DHT22;31763;48.180;7.904;2024-02-21T07:38:38;5.60;99.90
46029;DHT22;31763;48.180;7.904;2024-02-21T07:41:05;5.70;99.90
46029;DHT22;31763;48.180;7.904;2024-02-21T07:43:32;5.90;99.90
46029;DHT22;31763;48.180;7.904;2024-02-21T07:45:59;5.90;99.90
46029;DHT22;31763;48.180;7.904;2024-02-21T07:48:26;6.00;99.90
46029;DHT22;31763;48.180;7.904;2024-02-21T07:50:53;6.00;99.90
46029;DHT22;31763;48.180;7.904;2024-02-21T07:53:20;6.00;99.90
46029;DHT22;31763;48.180;7.904;2024-02-21T07:55:47;6.00;99.90
46029;DHT22;31763;48.180;7.904;2024-02-21T07:58:14;6.00;99.90
46029;DHT22;31763;48.180;7.904;2024-02-21T08:00:41;6.10;99.90
46029;DHT22;31763;48.180;7.904;2024-02-21T08:03:08;6.20;99.90
46029;DHT22;31763;48.180;7.904;2024-02-21T08:05:35;6.20;99.90
46029;DHT22;31763;48.180;7.904;2024-02-21T08:08:03;6.30;99.90
46029;DHT22;31763;48.180;7.904;2024-02-21T08:10:31;6.30;99.90
46029;DHT22;31763;48.180;7.904;2024-02-21T08:12:57;6.20;99.90
46029;DHT22;31763;48.180;7.904;2024-02-21T08:15:24;6.20;99.90
46029;DHT22;31763;48.180;7.904;2024-02-21T08:17:56;6.30;99.90
46029;DHT22;31763;48.180;7.904;2024-02-21T08:20:26;6.40;99.90
46029;DHT22;31763;48.180;7.904;2024-02-21T08:22:53;6.50;99.90
46029;DHT22;31763;48.180;7.904;2024-02-21T08:25:20;6.60;99.90
46029;DHT22;31763;48.180;7.904;2024-02-21T08:27:47;6.70;99.90
46029;DHT22;31763;48.180;7.904;2024-02-21T08:30:14;6.80;99.90
46029;DHT22;31763;48.180;7.904;2024-02-21T08:32:41;6.80;99.90
46029;DHT22;31763;48.180;7.904;2024-02-21T08:35:09;6.70;99.90
46029;DHT22;31763;48.180;7.904;2024-02-21T08:37:35;6.70;99.90
46029;DHT22;31763;48.180;7.904;2024-02-21T08:40:03;6.80;99.90
46029;DHT22;31763;48.180;7.904;2024-02-21T08:42:44;6.80;99.90
46029;DHT22;31763;48.180;7.904;2024-02-21T08:45:10;6.80;99.90
46029;DHT22;31763;48.180;7.904;2024-02-21T08:47:41;6.80;99.90
46029;DHT22;31763;48.180;7.904;2024-02-21T08:50:08;6.80;99.90
46029;DHT22;31763;48.180;7.904;2024-02-21T08:52:53;6.80;99.90
46029;DHT22;31763;48.180;7.904;2024-02-21T08:55:21;6.90;99.90
46029;DHT22;31763;48.180;7.904;2024-02-21T08:57:48;6.80;99.90
46029;DHT22;31763;48.180;7.904;2024-02-21T09:00:15;6.80;99.90
46029;DHT22;31763;48.180;7.904;2024-02-21T09:02:43;7.00;99.90
46029;DHT22;31763;48.180;7.904;2024-02-21T09:05:10;7.00;99.90
46029;DHT22;31763;48.180;7.904;2024-02-21T09:07:38;7.00;99.90
46029;DHT22;31763;48.180;7.904;2024-02-21T09:10:05;7.00;99.90
46029;DHT22;31763;48.180;7.904;2024-02-21T09:12:33;7.00;99.90
46029;DHT22;31763;48.180;7.904;2024-02-21T09:14:59;7.10;99.90
46029;DHT22;31763;48.180;7.904;2024-02-21T09:17:26;7.10;99.90
46029;DHT22;31763;48.180;7.904;2024-02-21T09:19:56;7.10;99.90
46029;DHT22;31763;48.180;7.904;2024-02-21T09:22:26;7.20;99.90
46029;DHT22;31763;48.180;7.904;2024-02-21T09:24:53;7.10;99.90
46029;DHT22;31763;48.180;7.904;2024-02-21T09:27:20;7.30;99.90
46029;DHT22;31763;48.180;7.904;2024-02-21T09:29:48;7.30;99.90
46029;DHT22;31763;48.180;7.904;2024-02-21T09:32:15;7.20;99.90
46029;DHT22;31763;48.180;7.904;2024-02-21T09:34:42;7.30;99.90
46029;DHT22;31763;48.180;7.904;2024-02-21T09:37:09;7.40;99.90
46029;DHT22;31763;48.180;7.904;2024-02-21T09:39:36;7.50;99.90
46029;DHT22;31763;48.180;7.904;2024-02-21T09:42:06;7.60;99.90
46029;DHT22;31763;48.180;7.904;2024-02-21T09:44:37;7.70;99.90
46029;DHT22;31763;48.180;7.904;2024-02-21T09:47:17;7.60;99.90
46029;DHT22;31763;48.180;7.904;2024-02-21T09:49:46;7.70;99.90
46029;DHT22;31763;48.180;7.904;2024-02-21T09:52:15;7.70;99.90
46029;DHT22;31763;48.180;7.904;2024-02-21T09:54:42;7.70;99.90
46029;DHT22;31763;48.180;7.904;2024-02-21T09:57:11;7.60;99.90
46029;DHT22;31763;48.180;7.904;2024-02-21T09:59:39;7.70;99.90
46029;DHT22;31763;48.180;7.904;2024-02-21T10:02:08;7.80;99.90
46029;DHT22;31763;48.180;7.904;2024-02-21T10:04:35;7.80;99.90
46029;DHT22;31763;48.180;7.904;2024-02-21T10:07:03;7.90;99.90
46029;DHT22;31763;48.180;7.904;2024-02-21T10:09:31;8.10;99.90
46029;DHT22;31763;48.180;7.904;2024-02-21T10:12:08;8.10;99.90
46029;DHT22;31763;48.180;7.904;2024-02-21T10:14:40;8.30;99.90
46029;DHT22;31763;48.180;7.904;2024-02-21T10:17:07;8.30;99.90
46029;DHT22;31763;48.180;7.904;2024-02-21T10:19:37;8.40;99.90
46029;DHT22;31763;48.180;7.904;2024-02-21T10:22:08;8.40;99.90
46029;DHT22;31763;48.180;7.904;2024-02-21T10:24:36;8.50;99.90
46029;DHT22;31763;48.180;7.904;2024-02-21T10:27:06;8.50;99.90
46029;DHT22;31763;48.180;7.904;2024-02-21T10:29:40;8.50;99.90
46029;DHT22;31763;48.180;7.904;2024-02-21T10:32:10;8.40;99.90
46029;DHT22;31763;48.180;7.904;2024-02-21T10:34:40;8.50;99.90
46029;DHT22;31763;48.180;7.904;2024-02-21T10:37:09;8.60;99.90
46029;DHT22;31763;48.180;7.904;2024-02-21T10:39:41;8.80;99.90
46029;DHT22;31763;48.180;7.904;2024-02-21T10:42:11;8.60;99.90
46029;DHT22;31763;48.180;7.904;2024-02-21T10:44:40;8.70;99.90
46029;DHT22;31763;48.180;7.904;2024-02-21T10:47:09;8.80;99.90
46029;DHT22;31763;48.180;7.904;2024-02-21T10:49:39;8.90;99.90
46029;DHT22;31763;48.180;7.904;2024-02-21T10:52:15;9.00;99.90
46029;DHT22;31763;48.180;7.904;2024-02-21T10:54:55;9.00;99.90
46029;DHT22;31763;48.180;7.904;2024-02-21T10:57:25;9.10;99.90
46029;DHT22;31763;48.180;7.904;2024-02-21T10:59:55;9.10;99.90
46029;DHT22;31763;48.180;7.904;2024-02-21T11:02:26;9.10;99.90
46029;DHT22;31763;48.180;7.904;2024-02-21T11:04:55;9.20;99.90
46029;DHT22;31763;48.180;7.904;2024-02-21T11:07:23;9.30;99.90
46029;DHT22;31763;48.180;7.904;2024-02-21T11:09:54;9.50;99.90
46029;DHT22;31763;48.180;7.904;2024-02-21T11:12:22;9.60;99.90
46029;DHT22;31763;48.180;7.904;2024-02-21T11:14:50;9.20;99.90
46029;DHT22;31763;48.180;7.904;2024-02-21T11:17:20;9.20;99.90
46029;DHT22;31763;48.180;7.904;2024-02-21T11:19:49;9.30;99.90
46029;DHT22;31763;48.180;7.904;2024-02-21T11:22:20;9.40;99.90
46029;DHT22;31763;48.180;7.904;2024-02-21T11:24:51;9.40;99.90
46029;DHT22;31763;48.180;7.904;2024-02-21T11:27:22;9.30;99.90
46029;DHT22;31763;48.180;7.904;2024-02-21T11:29:57;9.40;99.90
46029;DHT22;31763;48.180;7.904;2024-02-21T11:32:25;9.40;99.90
46029;DHT22;31763;48.180;7.904;2024-02-21T11:35:03;9.40;99.90
46029;DHT22;31763;48.180;7.904;2024-02-21T11:37:34;9.40;99.90
46029;DHT22;31763;48.180;7.904;2024-02-21T11:40:06;9.50;99.90
46029;DHT22;31763;48.180;7.904;2024-02-21T11:42:37;9.40;99.90
46029;DHT22;31763;48.180;7.904;2024-02-21T11:45:06;9.60;99.90
46029;DHT22;31763;48.180;7.904;2024-02-21T11:47:33;9.70;99.90
46029;DHT22;31763;48.180;7.904;2024-02-21T11:50:00;9.80;99.90
46029;DHT22;31763;48.180;7.904;2024-02-21T11:52:28;9.60;99.90
46029;DHT22;31763;48.180;7.904;2024-02-21T11:54:55;9.60;99.90
46029;DHT22;31763;48.180;7.904;2024-02-21T11:57:30;9.60;99.90
46029;DHT22;31763;48.180;7.904;2024-02-21T11:59:57;9.60;99.90
46029;DHT22;31763;48.180;7.904;2024-02-21T12:02:27;9.70;99.90
46029;DHT22;31763;48.180;7.904;2024-02-21T12:04:55;9.70;99.90
46029;DHT22;31763;48.180;7.904;2024-02-21T12:07:22;9.80;99.90
46029;DHT22;31763;48.180;7.904;2024-02-21T12:09:51;9.80;99.90
46029;DHT22;31763;48.180;7.904;2024-02-21T12:12:20;9.70;99.90
46029;DHT22;31763;48.180;7.904;2024-02-21T12:14:55;9.80;99.90
46029;DHT22;31763;48.180;7.904;2024-02-21T12:17:23;9.80;99.90
46029;DHT22;31763;48.180;7.904;2024-02-21T12:19:50;9.90;99.90
46029;DHT22;31763;48.180;7.904;2024-02-21T12:22:18;10.00;99.90
46029;DHT22;31763;48.180;7.904;2024-02-21T12:24:46;10.00;99.90
46029;DHT22;31763;48.180;7.904;2024-02-21T12:27:15;10.00;99.90
46029;DHT22;31763;48.180;7.904;2024-02-21T12:29:41;10.00;99.90
46029;DHT22;31763;48.180;7.904;2024-02-21T12:32:08;10.20;99.90
46029;DHT22;31763;48.180;7.904;2024-02-21T12:34:35;10.20;99.90
46029;DHT22;31763;48.180;7.904;2024-02-21T12:37:18;10.20;99.90
46029;DHT22;31763;48.180;7.904;2024-02-21T12:39:47;10.20;99.90
46029;DHT22;31763;48.180;7.904;2024-02-21T12:42:13;10.20;99.90
46029;DHT22;31763;48.180;7.904;2024-02-21T12:44:40;10.30;99.90
46029;DHT22;31763;48.180;7.904;2024-02-21T12:47:08;10.20;99.90
46029;DHT22;31763;48.180;7.904;2024-02-21T12:49:35;10.30;99.90
46029;DHT22;31763;48.180;7.904;2024-02-21T12:52:04;10.30;99.90
46029;DHT22;31763;48.180;7.904;2024-02-21T12:54:31;10.30;99.90
46029;DHT22;31763;48.180;7.904;2024-02-21T12:56:58;10.40;99.90
46029;DHT22;31763;48.180;7.904;2024-02-21T12:59:29;10.40;99.90
46029;DHT22;31763;48.180;7.904;2024-02-21T13:01:56;10.40;99.90
46029;DHT22;31763;48.180;7.904;2024-02-21T13:04:23;10.40;99.90
46029;DHT22;31763;48.180;7.904;2024-02-21T13:06:51;10.40;99.90
46029;DHT22;31763;48.180;7.904;2024-02-21T13:09:18;10.50;99.90
46029;DHT22;31763;48.180;7.904;2024-02-21T13:11:47;10.50;99.90
46029;DHT22;31763;48.180;7.904;2024-02-21T13:14:14;10.50;99.90
46029;DHT22;31763;48.180;7.904;2024-02-21T13:16:43;10.60;99.90
46029;DHT22;31763;48.180;7.904;2024-02-21T13:19:10;10.60;99.90
46029;DHT22;31763;48.180;7.904;2024-02-21T13:21:37;10.60;99.90
46029;DHT22;31763;48.180;7.904;2024-02-21T13:24:04;10.60;99.90
46029;DHT22;31763;48.180;7.904;2024-02-21T13:26:31;10.70;99.90
46029;DHT22;31763;48.180;7.904;2024-02-21T13:28:58;10.70;99.90
46029;DHT22;31763;48.180;7.904;2024-02-21T13:31:25;10.80;99.90
46029;DHT22;31763;48.180;7.904;2024-02-21T13:33:52;10.80;99.90
46029;DHT22;31763;48.180;7.904;2024-02-21T13:36:19;10.80;99.90
46029;DHT22;31763;48.180;7.904;2024-02-21T13:38:46;10.80;99.90
46029;DHT22;31763;48.180;7.904;2024-02-21T13:41:13;10.80;99.90
46029;DHT22;31763;48.180;7.904;2024-02-21T13:43:41;10.90;99.90
46029;DHT22;31763;48.180;7.904;2024-02-21T13:46:08;10.80;99.90
46029;DHT22;31763;48.180;7.904;2024-02-21T13:48:36;10.80;99.90
46029;DHT22;31763;48.180;7.904;2024-02-21T13:51:04;10.80;99.90
46029;DHT22;31763;48.180;7.904;2024-02-21T13:53:31;10.80;99.90
46029;DHT22;31763;48.180;7.904;2024-02-21T13:55:58;10.80;99.90
46029;DHT22;31763;48.180;7.904;2024-02-21T13:58:25;10.90;99.90
46029;DHT22;31763;48.180;7.904;2024-02-21T14:00:53;10.80;99.90
46029;DHT22;31763;48.180;7.904;2024-02-21T14:03:20;10.80;99.90
46029;DHT22;31763;48.180;7.904;2024-02-21T14:05:47;10.80;99.90
46029;DHT22;31763;48.180;7.904;2024-02-21T14:08:17;10.60;99.90
46029;DHT22;31763;48.180;7.904;2024-02-21T14:10:44;10.50;99.90
46029;DHT22;31763;48.180;7.904;2024-02-21T14:13:11;10.50;99.90
46029;DHT22;31763;48.180;7.904;2024-02-21T14:15:41;10.50;99.90
46029;DHT22;31763;48.180;7.904;2024-02-21T14:18:12;10.60;99.90
46029;DHT22;31763;48.180;7.904;2024-02-21T14:20:39;10.50;99.90
46029;DHT22;31763;48.180;7.904;2024-02-21T14:23:06;10.50;99.90
46029;DHT22;31763;48.180;7.904;2024-02-21T14:25:33;10.50;99.90
46029;DHT22;31763;48.180;7.904;2024-02-21T14:28:00;10.50;99.90
46029;DHT22;31763;48.180;7.904;2024-02-21T14:30:27;10.50;99.90
46029;DHT22;31763;48.180;7.904;2024-02-21T14:32:54;10.50;99.90
46029;DHT22;31763;48.180;7.904;2024-02-21T14:35:21;10.60;99.90
46029;DHT22;31763;48.180;7.904;2024-02-21T14:37:48;10.60;99.90
46029;DHT22;31763;48.180;7.904;2024-02-21T14:40:16;10.60;99.90
46029;DHT22;31763;48.180;7.904;2024-02-21T14:42:43;10.60;99.90
46029;DHT22;31763;48.180;7.904;2024-02-21T14:45:10;10.70;99.90
46029;DHT22;31763;48.180;7.904;2024-02-21T14:47:37;10.60;99.90
46029;DHT22;31763;48.180;7.904;2024-02-21T14:50:04;10.60;99.90
46029;DHT22;31763;48.180;7.904;2024-02-21T14:52:32;10.50;99.90
46029;DHT22;31763;48.180;7.904;2024-02-21T14:54:59;10.60;99.90
46029;DHT22;31763;48.180;7.904;2024-02-21T14:57:29;10.60;99.90
46029;DHT22;31763;48.180;7.904;2024-02-21T14:59:56;10.60;99.90
46029;DHT22;31763;48.180;7.904;2024-02-21T15:02:25;10.60;99.90
46029;DHT22;31763;48.180;7.904;2024-02-21T15:04:54;10.60;99.90
46029;DHT22;31763;48.180;7.904;2024-02-21T15:07:21;10.60;99.90
46029;DHT22;31763;48.180;7.904;2024-02-21T15:09:53;10.60;99.90
46029;DHT22;31763;48.180;7.904;2024-02-21T15:12:20;10.70;99.90
46029;DHT22;31763;48.180;7.904;2024-02-21T15:14:49;10.60;99.90
46029;DHT22;31763;48.180;7.904;2024-02-21T15:17:16;10.60;99.90
46029;DHT22;31763;48.180;7.904;2024-02-21T15:19:44;10.60;99.90
46029;DHT22;31763;48.180;7.904;2024-02-21T15:22:11;10.50;99.90
46029;DHT22;31763;48.180;7.904;2024-02-21T15:24:41;10.50;99.90
46029;DHT22;31763;48.180;7.904;2024-02-21T15:27:09;10.50;99.90
46029;DHT22;31763;48.180;7.904;2024-02-21T15:29:36;10.50;99.90
46029;DHT22;31763;48.180;7.904;2024-02-21T15:32:03;10.50;99.90
46029;DHT22;31763;48.180;7.904;2024-02-21T15:34:30;10.50;99.90
46029;DHT22;31763;48.180;7.904;2024-02-21T15:36:58;10.60;99.90
46029;DHT22;31763;48.180;7.904;2024-02-21T15:39:26;10.60;99.90
46029;DHT22;31763;48.180;7.904;2024-02-21T15:41:54;10.60;99.90
46029;DHT22;31763;48.180;7.904;2024-02-21T15:44:23;10.50;99.90
46029;DHT22;31763;48.180;7.904;2024-02-21T15:46:50;10.60;99.90